Available data for KWHP from the past 2 hours
LA / WHITEMAN, CA
Metar
KWHP 252155Z 12007KT 10SM BKN050 19/07 A3011

21:55 UTC

Wind: 120° 7kt

Visibility: 10 SM

Sky: BKN 5000 ft

Temp: 19 deg C / 66.2 deg F

Dewpoint: 7 deg C / 44.6 deg F

Pressure: 30.11 inHg